sensor_id;sensor_type;location;lat;lon;timestamp;P1;durP1;ratioP1;P2;durP2;ratioP2
11709;SDS011;5911;51.036;6.972;2022-10-31T00:01:23;11.07;;;6.90;;
11709;SDS011;5911;51.036;6.972;2022-10-31T00:03:53;14.03;;;7.20;;
11709;SDS011;5911;51.036;6.972;2022-10-31T00:06:25;11.17;;;7.03;;
11709;SDS011;5911;51.036;6.972;2022-10-31T00:09:03;13.50;;;6.80;;
11709;SDS011;5911;51.036;6.972;2022-10-31T00:11:32;11.57;;;7.10;;
11709;SDS011;5911;51.036;6.972;2022-10-31T00:14:00;10.27;;;6.27;;
11709;SDS011;5911;51.036;6.972;2022-10-31T00:16:28;8.23;;;6.40;;
11709;SDS011;5911;51.036;6.972;2022-10-31T00:18:58;13.47;;;6.57;;
11709;SDS011;5911;51.036;6.972;2022-10-31T00:21:28;10.67;;;6.37;;
11709;SDS011;5911;51.036;6.972;2022-10-31T00:23:57;12.23;;;6.83;;
11709;SDS011;5911;51.036;6.972;2022-10-31T00:26:26;10.00;;;6.87;;
11709;SDS011;5911;51.036;6.972;2022-10-31T00:28:54;9.90;;;5.97;;
11709;SDS011;5911;51.036;6.972;2022-10-31T00:31:22;8.07;;;6.03;;
11709;SDS011;5911;51.036;6.972;2022-10-31T00:33:50;11.47;;;5.97;;
11709;SDS011;5911;51.036;6.972;2022-10-31T00:36:18;9.77;;;6.03;;
11709;SDS011;5911;51.036;6.972;2022-10-31T00:38:48;9.13;;;6.50;;
11709;SDS011;5911;51.036;6.972;2022-10-31T00:41:16;9.27;;;6.70;;
11709;SDS011;5911;51.036;6.972;2022-10-31T00:43:45;9.53;;;6.73;;
11709;SDS011;5911;51.036;6.972;2022-10-31T00:46:13;10.67;;;6.67;;
11709;SDS011;5911;51.036;6.972;2022-10-31T00:48:41;11.03;;;6.10;;
11709;SDS011;5911;51.036;6.972;2022-10-31T00:51:09;9.10;;;6.37;;
11709;SDS011;5911;51.036;6.972;2022-10-31T00:53:38;9.33;;;6.63;;
11709;SDS011;5911;51.036;6.972;2022-10-31T00:56:08;11.23;;;6.20;;
11709;SDS011;5911;51.036;6.972;2022-10-31T00:58:36;12.23;;;6.40;;
11709;SDS011;5911;51.036;6.972;2022-10-31T01:01:05;10.80;;;6.90;;
11709;SDS011;5911;51.036;6.972;2022-10-31T01:03:34;9.90;;;6.77;;
11709;SDS011;5911;51.036;6.972;2022-10-31T01:06:03;8.23;;;6.00;;
11709;SDS011;5911;51.036;6.972;2022-10-31T01:08:32;9.90;;;6.73;;
11709;SDS011;5911;51.036;6.972;2022-10-31T01:11:01;10.90;;;7.20;;
11709;SDS011;5911;51.036;6.972;2022-10-31T01:13:34;11.90;;;7.20;;
11709;SDS011;5911;51.036;6.972;2022-10-31T01:16:03;7.63;;;6.30;;
11709;SDS011;5911;51.036;6.972;2022-10-31T01:18:32;7.73;;;6.17;;
11709;SDS011;5911;51.036;6.972;2022-10-31T01:21:01;9.93;;;5.97;;
11709;SDS011;5911;51.036;6.972;2022-10-31T01:23:31;10.23;;;6.80;;
11709;SDS011;5911;51.036;6.972;2022-10-31T01:26:00;13.03;;;6.93;;
11709;SDS011;5911;51.036;6.972;2022-10-31T01:28:31;8.33;;;6.73;;
11709;SDS011;5911;51.036;6.972;2022-10-31T01:31:02;8.87;;;6.07;;
11709;SDS011;5911;51.036;6.972;2022-10-31T01:33:33;10.67;;;6.93;;
11709;SDS011;5911;51.036;6.972;2022-10-31T01:36:01;12.83;;;6.70;;
11709;SDS011;5911;51.036;6.972;2022-10-31T01:38:38;9.87;;;6.30;;
11709;SDS011;5911;51.036;6.972;2022-10-31T01:41:06;11.63;;;6.73;;
11709;SDS011;5911;51.036;6.972;2022-10-31T01:43:44;13.47;;;7.10;;
11709;SDS011;5911;51.036;6.972;2022-10-31T01:46:16;9.27;;;6.87;;
11709;SDS011;5911;51.036;6.972;2022-10-31T01:48:47;10.93;;;6.93;;
11709;SDS011;5911;51.036;6.972;2022-10-31T01:51:17;9.47;;;6.33;;
11709;SDS011;5911;51.036;6.972;2022-10-31T01:53:50;10.77;;;6.93;;
11709;SDS011;5911;51.036;6.972;2022-10-31T01:56:22;9.77;;;6.23;;
11709;SDS011;5911;51.036;6.972;2022-10-31T01:58:50;10.13;;;6.60;;
11709;SDS011;5911;51.036;6.972;2022-10-31T02:01:21;9.17;;;5.80;;
11709;SDS011;5911;51.036;6.972;2022-10-31T02:03:49;9.60;;;6.20;;
11709;SDS011;5911;51.036;6.972;2022-10-31T02:06:21;9.93;;;6.47;;
11709;SDS011;5911;51.036;6.972;2022-10-31T02:08:56;9.37;;;6.57;;
11709;SDS011;5911;51.036;6.972;2022-10-31T02:11:26;11.63;;;6.37;;
11709;SDS011;5911;51.036;6.972;2022-10-31T02:13:55;7.10;;;5.87;;
11709;SDS011;5911;51.036;6.972;2022-10-31T02:16:25;10.13;;;6.07;;
11709;SDS011;5911;51.036;6.972;2022-10-31T02:18:53;9.17;;;6.80;;
11709;SDS011;5911;51.036;6.972;2022-10-31T02:21:23;10.67;;;5.90;;
11709;SDS011;5911;51.036;6.972;2022-10-31T02:24:09;9.70;;;6.23;;
11709;SDS011;5911;51.036;6.972;2022-10-31T02:27:07;8.80;;;5.67;;
11709;SDS011;5911;51.036;6.972;2022-10-31T02:29:52;8.70;;;5.93;;
11709;SDS011;5911;51.036;6.972;2022-10-31T02:32:34;10.20;;;5.93;;
11709;SDS011;5911;51.036;6.972;2022-10-31T02:35:11;8.07;;;5.40;;
11709;SDS011;5911;51.036;6.972;2022-10-31T02:37:47;8.43;;;5.93;;
11709;SDS011;5911;51.036;6.972;2022-10-31T02:40:23;6.90;;;5.23;;
11709;SDS011;5911;51.036;6.972;2022-10-31T02:43:14;8.70;;;5.50;;
11709;SDS011;5911;51.036;6.972;2022-10-31T02:45:48;10.27;;;5.97;;
11709;SDS011;5911;51.036;6.972;2022-10-31T02:48:24;8.87;;;5.67;;
11709;SDS011;5911;51.036;6.972;2022-10-31T02:50:55;7.80;;;5.90;;
11709;SDS011;5911;51.036;6.972;2022-10-31T02:53:25;9.10;;;5.70;;
11709;SDS011;5911;51.036;6.972;2022-10-31T02:55:56;12.63;;;6.17;;
11709;SDS011;5911;51.036;6.972;2022-10-31T02:58:28;8.10;;;5.90;;
11709;SDS011;5911;51.036;6.972;2022-10-31T03:01:17;9.93;;;6.17;;
11709;SDS011;5911;51.036;6.972;2022-10-31T03:04:00;7.20;;;5.70;;
11709;SDS011;5911;51.036;6.972;2022-10-31T03:06:41;7.73;;;5.77;;
11709;SDS011;5911;51.036;6.972;2022-10-31T03:09:19;11.87;;;6.80;;
11709;SDS011;5911;51.036;6.972;2022-10-31T03:11:56;8.97;;;6.17;;
11709;SDS011;5911;51.036;6.972;2022-10-31T03:14:31;9.70;;;6.73;;
11709;SDS011;5911;51.036;6.972;2022-10-31T03:17:07;9.07;;;5.30;;
11709;SDS011;5911;51.036;6.972;2022-10-31T03:19:42;10.77;;;6.03;;
11709;SDS011;5911;51.036;6.972;2022-10-31T03:22:15;9.77;;;6.00;;
11709;SDS011;5911;51.036;6.972;2022-10-31T03:24:45;9.80;;;5.87;;
11709;SDS011;5911;51.036;6.972;2022-10-31T03:27:16;8.57;;;5.70;;
11709;SDS011;5911;51.036;6.972;2022-10-31T03:29:48;10.13;;;6.00;;
11709;SDS011;5911;51.036;6.972;2022-10-31T03:32:19;9.63;;;6.10;;
11709;SDS011;5911;51.036;6.972;2022-10-31T03:34:53;7.23;;;5.70;;
11709;SDS011;5911;51.036;6.972;2022-10-31T03:37:24;9.90;;;6.50;;
11709;SDS011;5911;51.036;6.972;2022-10-31T03:39:55;10.30;;;5.83;;
11709;SDS011;5911;51.036;6.972;2022-10-31T03:42:27;11.63;;;5.73;;
11709;SDS011;5911;51.036;6.972;2022-10-31T03:44:58;8.97;;;5.57;;
11709;SDS011;5911;51.036;6.972;2022-10-31T03:47:28;10.10;;;6.47;;
11709;SDS011;5911;51.036;6.972;2022-10-31T03:49:59;7.17;;;6.20;;
11709;SDS011;5911;51.036;6.972;2022-10-31T03:52:28;10.00;;;6.57;;
11709;SDS011;5911;51.036;6.972;2022-10-31T03:55:05;8.57;;;6.03;;
11709;SDS011;5911;51.036;6.972;2022-10-31T03:57:37;8.60;;;5.90;;
11709;SDS011;5911;51.036;6.972;2022-10-31T04:00:10;8.17;;;5.23;;
11709;SDS011;5911;51.036;6.972;2022-10-31T04:02:47;9.13;;;5.60;;
11709;SDS011;5911;51.036;6.972;2022-10-31T04:05:24;7.60;;;5.87;;
11709;SDS011;5911;51.036;6.972;2022-10-31T04:07:58;8.03;;;5.90;;
11709;SDS011;5911;51.036;6.972;2022-10-31T04:10:30;15.37;;;6.30;;
11709;SDS011;5911;51.036;6.972;2022-10-31T04:13:01;9.50;;;5.90;;
11709;SDS011;5911;51.036;6.972;2022-10-31T04:15:42;9.37;;;6.07;;
11709;SDS011;5911;51.036;6.972;2022-10-31T04:18:12;7.30;;;5.40;;
11709;SDS011;5911;51.036;6.972;2022-10-31T04:20:41;11.83;;;6.17;;
11709;SDS011;5911;51.036;6.972;2022-10-31T04:23:13;8.87;;;6.20;;
11709;SDS011;5911;51.036;6.972;2022-10-31T04:25:47;9.67;;;5.70;;
11709;SDS011;5911;51.036;6.972;2022-10-31T04:28:16;8.77;;;6.40;;
11709;SDS011;5911;51.036;6.972;2022-10-31T04:30:50;10.43;;;6.87;;
11709;SDS011;5911;51.036;6.972;2022-10-31T04:33:18;8.13;;;6.07;;
11709;SDS011;5911;51.036;6.972;2022-10-31T04:35:47;12.13;;;6.30;;
11709;SDS011;5911;51.036;6.972;2022-10-31T04:38:15;11.37;;;6.23;;
11709;SDS011;5911;51.036;6.972;2022-10-31T04:40:44;9.53;;;6.57;;
11709;SDS011;5911;51.036;6.972;2022-10-31T04:43:31;7.27;;;5.83;;
11709;SDS011;5911;51.036;6.972;2022-10-31T04:45:59;9.87;;;5.73;;
11709;SDS011;5911;51.036;6.972;2022-10-31T04:48:27;10.20;;;6.43;;
11709;SDS011;5911;51.036;6.972;2022-10-31T04:50:59;10.90;;;6.32;;
11709;SDS011;5911;51.036;6.972;2022-10-31T04:53:27;10.03;;;6.57;;
11709;SDS011;5911;51.036;6.972;2022-10-31T04:56:24;9.60;;;5.77;;
11709;SDS011;5911;51.036;6.972;2022-10-31T04:58:58;13.70;;;7.17;;
11709;SDS011;5911;51.036;6.972;2022-10-31T05:01:30;7.57;;;6.10;;
11709;SDS011;5911;51.036;6.972;2022-10-31T05:03:59;10.30;;;5.90;;
11709;SDS011;5911;51.036;6.972;2022-10-31T05:06:29;11.80;;;6.10;;
11709;SDS011;5911;51.036;6.972;2022-10-31T05:08:57;7.30;;;5.65;;
11709;SDS011;5911;51.036;6.972;2022-10-31T05:11:25;8.50;;;6.60;;
11709;SDS011;5911;51.036;6.972;2022-10-31T05:13:57;10.60;;;6.53;;
11709;SDS011;5911;51.036;6.972;2022-10-31T05:17:03;13.43;;;7.00;;
11709;SDS011;5911;51.036;6.972;2022-10-31T05:20:09;9.37;;;6.67;;
11709;SDS011;5911;51.036;6.972;2022-10-31T05:22:57;12.47;;;6.10;;
11709;SDS011;5911;51.036;6.972;2022-10-31T05:25:27;8.77;;;5.90;;
11709;SDS011;5911;51.036;6.972;2022-10-31T05:27:56;13.17;;;6.87;;
11709;SDS011;5911;51.036;6.972;2022-10-31T05:30:25;10.40;;;6.83;;
11709;SDS011;5911;51.036;6.972;2022-10-31T05:32:55;10.93;;;6.87;;
11709;SDS011;5911;51.036;6.972;2022-10-31T05:35:49;9.10;;;6.23;;
11709;SDS011;5911;51.036;6.972;2022-10-31T05:38:38;10.13;;;6.73;;
11709;SDS011;5911;51.036;6.972;2022-10-31T05:41:28;13.93;;;6.70;;
11709;SDS011;5911;51.036;6.972;2022-10-31T05:44:05;9.93;;;6.87;;
11709;SDS011;5911;51.036;6.972;2022-10-31T05:46:45;10.53;;;7.23;;
11709;SDS011;5911;51.036;6.972;2022-10-31T05:49:49;13.37;;;6.73;;
11709;SDS011;5911;51.036;6.972;2022-10-31T05:52:35;9.30;;;6.63;;
11709;SDS011;5911;51.036;6.972;2022-10-31T05:55:15;10.47;;;6.73;;
11709;SDS011;5911;51.036;6.972;2022-10-31T05:57:58;13.30;;;7.80;;
11709;SDS011;5911;51.036;6.972;2022-10-31T06:00:27;10.40;;;6.97;;
11709;SDS011;5911;51.036;6.972;2022-10-31T06:03:03;9.97;;;7.27;;
11709;SDS011;5911;51.036;6.972;2022-10-31T06:05:45;9.25;;;6.78;;
11709;SDS011;5911;51.036;6.972;2022-10-31T06:08:22;10.37;;;7.03;;
11709;SDS011;5911;51.036;6.972;2022-10-31T06:10:51;12.60;;;6.83;;
11709;SDS011;5911;51.036;6.972;2022-10-31T06:13:40;10.67;;;6.70;;
11709;SDS011;5911;51.036;6.972;2022-10-31T06:16:15;11.57;;;7.13;;
11709;SDS011;5911;51.036;6.972;2022-10-31T06:18:45;10.77;;;6.63;;
11709;SDS011;5911;51.036;6.972;2022-10-31T06:21:13;9.97;;;6.93;;
11709;SDS011;5911;51.036;6.972;2022-10-31T06:23:46;9.70;;;6.57;;
11709;SDS011;5911;51.036;6.972;2022-10-31T06:26:29;10.67;;;6.33;;
11709;SDS011;5911;51.036;6.972;2022-10-31T06:28:59;9.70;;;7.40;;
11709;SDS011;5911;51.036;6.972;2022-10-31T06:31:55;15.33;;;6.73;;
11709;SDS011;5911;51.036;6.972;2022-10-31T06:34:23;12.00;;;6.70;;
11709;SDS011;5911;51.036;6.972;2022-10-31T06:36:51;9.13;;;7.00;;
11709;SDS011;5911;51.036;6.972;2022-10-31T06:39:23;16.23;;;7.30;;
11709;SDS011;5911;51.036;6.972;2022-10-31T06:41:55;7.90;;;6.43;;
11709;SDS011;5911;51.036;6.972;2022-10-31T06:44:25;11.23;;;7.20;;
11709;SDS011;5911;51.036;6.972;2022-10-31T06:46:53;10.50;;;7.40;;
11709;SDS011;5911;51.036;6.972;2022-10-31T06:49:39;10.73;;;8.03;;
11709;SDS011;5911;51.036;6.972;2022-10-31T06:52:11;11.87;;;6.87;;
11709;SDS011;5911;51.036;6.972;2022-10-31T06:54:40;10.20;;;7.27;;
11709;SDS011;5911;51.036;6.972;2022-10-31T06:57:09;14.80;;;7.33;;
11709;SDS011;5911;51.036;6.972;2022-10-31T06:59:38;12.93;;;8.35;;
11709;SDS011;5911;51.036;6.972;2022-10-31T07:02:34;11.50;;;7.97;;
11709;SDS011;5911;51.036;6.972;2022-10-31T07:05:04;12.53;;;7.40;;
11709;SDS011;5911;51.036;6.972;2022-10-31T07:07:32;13.27;;;8.45;;
11709;SDS011;5911;51.036;6.972;2022-10-31T07:10:01;13.20;;;7.73;;
11709;SDS011;5911;51.036;6.972;2022-10-31T07:12:51;11.00;;;8.13;;
11709;SDS011;5911;51.036;6.972;2022-10-31T07:15:22;9.80;;;7.53;;
11709;SDS011;5911;51.036;6.972;2022-10-31T07:17:51;12.03;;;8.07;;
11709;SDS011;5911;51.036;6.972;2022-10-31T07:20:20;12.53;;;7.73;;
11709;SDS011;5911;51.036;6.972;2022-10-31T07:22:48;10.33;;;7.47;;
11709;SDS011;5911;51.036;6.972;2022-10-31T07:25:17;12.20;;;7.63;;
11709;SDS011;5911;51.036;6.972;2022-10-31T07:28:09;13.10;;;7.77;;
11709;SDS011;5911;51.036;6.972;2022-10-31T07:30:38;11.80;;;8.40;;
11709;SDS011;5911;51.036;6.972;2022-10-31T07:33:08;11.10;;;7.37;;
11709;SDS011;5911;51.036;6.972;2022-10-31T07:36:01;11.13;;;7.17;;
11709;SDS011;5911;51.036;6.972;2022-10-31T07:38:30;15.90;;;8.97;;
11709;SDS011;5911;51.036;6.972;2022-10-31T07:41:03;14.17;;;7.87;;
11709;SDS011;5911;51.036;6.972;2022-10-31T07:43:38;10.10;;;8.10;;
11709;SDS011;5911;51.036;6.972;2022-10-31T07:46:28;12.63;;;8.63;;
11709;SDS011;5911;51.036;6.972;2022-10-31T07:49:14;11.87;;;7.83;;
11709;SDS011;5911;51.036;6.972;2022-10-31T07:52:01;11.47;;;8.60;;
11709;SDS011;5911;51.036;6.972;2022-10-31T07:54:49;10.77;;;7.97;;
11709;SDS011;5911;51.036;6.972;2022-10-31T07:57:21;16.10;;;8.53;;
11709;SDS011;5911;51.036;6.972;2022-10-31T07:59:52;12.75;;;8.15;;
11709;SDS011;5911;51.036;6.972;2022-10-31T08:02:22;12.63;;;8.20;;
11709;SDS011;5911;51.036;6.972;2022-10-31T08:05:09;13.37;;;7.93;;
11709;SDS011;5911;51.036;6.972;2022-10-31T08:08:06;14.60;;;8.87;;
11709;SDS011;5911;51.036;6.972;2022-10-31T08:10:36;14.27;;;9.30;;
11709;SDS011;5911;51.036;6.972;2022-10-31T08:13:04;14.40;;;9.88;;
11709;SDS011;5911;51.036;6.972;2022-10-31T08:15:37;15.33;;;9.00;;
11709;SDS011;5911;51.036;6.972;2022-10-31T08:18:10;15.80;;;10.48;;
11709;SDS011;5911;51.036;6.972;2022-10-31T08:20:41;24.43;;;11.13;;
11709;SDS011;5911;51.036;6.972;2022-10-31T08:23:10;20.23;;;10.20;;
11709;SDS011;5911;51.036;6.972;2022-10-31T08:25:41;18.95;;;10.25;;
11709;SDS011;5911;51.036;6.972;2022-10-31T08:28:09;19.13;;;10.77;;
11709;SDS011;5911;51.036;6.972;2022-10-31T08:30:42;19.30;;;10.00;;
11709;SDS011;5911;51.036;6.972;2022-10-31T08:33:28;17.03;;;10.53;;
11709;SDS011;5911;51.036;6.972;2022-10-31T08:36:16;15.30;;;9.60;;
11709;SDS011;5911;51.036;6.972;2022-10-31T08:38:50;16.07;;;9.97;;
11709;SDS011;5911;51.036;6.972;2022-10-31T08:41:26;18.40;;;10.10;;
11709;SDS011;5911;51.036;6.972;2022-10-31T08:43:55;15.53;;;9.80;;
11709;SDS011;5911;51.036;6.972;2022-10-31T08:46:24;17.70;;;9.83;;
11709;SDS011;5911;51.036;6.972;2022-10-31T08:48:53;15.57;;;9.90;;
11709;SDS011;5911;51.036;6.972;2022-10-31T08:51:22;13.97;;;9.10;;
11709;SDS011;5911;51.036;6.972;2022-10-31T08:53:53;16.40;;;9.77;;
11709;SDS011;5911;51.036;6.972;2022-10-31T08:56:29;12.80;;;8.93;;
11709;SDS011;5911;51.036;6.972;2022-10-31T08:58:59;14.98;;;8.82;;
11709;SDS011;5911;51.036;6.972;2022-10-31T09:01:43;17.17;;;8.87;;
11709;SDS011;5911;51.036;6.972;2022-10-31T09:04:13;14.83;;;8.40;;
11709;SDS011;5911;51.036;6.972;2022-10-31T09:06:43;16.30;;;9.35;;
11709;SDS011;5911;51.036;6.972;2022-10-31T09:09:31;11.17;;;8.50;;
11709;SDS011;5911;51.036;6.972;2022-10-31T09:11:59;13.00;;;8.17;;
11709;SDS011;5911;51.036;6.972;2022-10-31T09:14:55;13.50;;;9.57;;
11709;SDS011;5911;51.036;6.972;2022-10-31T09:17:32;14.45;;;10.68;;
11709;SDS011;5911;51.036;6.972;2022-10-31T09:20:16;14.83;;;11.20;;
11709;SDS011;5911;51.036;6.972;2022-10-31T09:22:44;16.33;;;11.00;;
11709;SDS011;5911;51.036;6.972;2022-10-31T09:25:13;15.67;;;10.67;;
11709;SDS011;5911;51.036;6.972;2022-10-31T09:27:48;19.33;;;10.03;;
11709;SDS011;5911;51.036;6.972;2022-10-31T09:30:16;17.17;;;10.47;;
11709;SDS011;5911;51.036;6.972;2022-10-31T09:32:45;16.07;;;10.07;;
11709;SDS011;5911;51.036;6.972;2022-10-31T09:35:13;14.85;;;9.45;;
11709;SDS011;5911;51.036;6.972;2022-10-31T09:37:44;16.13;;;8.98;;
11709;SDS011;5911;51.036;6.972;2022-10-31T09:40:12;16.50;;;8.70;;
11709;SDS011;5911;51.036;6.972;2022-10-31T09:45:31;14.95;;;9.32;;
11709;SDS011;5911;51.036;6.972;2022-10-31T09:48:19;14.40;;;8.90;;
11709;SDS011;5911;51.036;6.972;2022-10-31T09:51:19;13.30;;;8.83;;
11709;SDS011;5911;51.036;6.972;2022-10-31T09:54:02;15.45;;;10.10;;
11709;SDS011;5911;51.036;6.972;2022-10-31T09:56:36;12.77;;;9.00;;
11709;SDS011;5911;51.036;6.972;2022-10-31T09:59:08;14.95;;;8.73;;
11709;SDS011;5911;51.036;6.972;2022-10-31T10:01:42;12.27;;;8.83;;
11709;SDS011;5911;51.036;6.972;2022-10-31T10:04:29;12.03;;;8.40;;
11709;SDS011;5911;51.036;6.972;2022-10-31T10:07:13;12.48;;;9.30;;
11709;SDS011;5911;51.036;6.972;2022-10-31T10:10:12;12.97;;;9.20;;
11709;SDS011;5911;51.036;6.972;2022-10-31T10:13:17;14.07;;;8.17;;
11709;SDS011;5911;51.036;6.972;2022-10-31T10:16:00;11.63;;;7.93;;
11709;SDS011;5911;51.036;6.972;2022-10-31T10:18:44;13.50;;;7.60;;
11709;SDS011;5911;51.036;6.972;2022-10-31T10:21:28;10.35;;;7.13;;
11709;SDS011;5911;51.036;6.972;2022-10-31T10:24:09;11.77;;;7.90;;
11709;SDS011;5911;51.036;6.972;2022-10-31T10:26:46;14.43;;;7.97;;
11709;SDS011;5911;51.036;6.972;2022-10-31T10:29:25;8.63;;;6.95;;
11709;SDS011;5911;51.036;6.972;2022-10-31T10:31:58;12.30;;;7.60;;
11709;SDS011;5911;51.036;6.972;2022-10-31T10:34:33;14.27;;;7.63;;
11709;SDS011;5911;51.036;6.972;2022-10-31T10:37:09;10.57;;;7.30;;
11709;SDS011;5911;51.036;6.972;2022-10-31T10:39:50;13.50;;;7.05;;
11709;SDS011;5911;51.036;6.972;2022-10-31T10:42:21;15.70;;;7.80;;
11709;SDS011;5911;51.036;6.972;2022-10-31T10:45:13;11.88;;;7.05;;
11709;SDS011;5911;51.036;6.972;2022-10-31T10:48:05;17.15;;;7.60;;
11709;SDS011;5911;51.036;6.972;2022-10-31T10:50:39;11.90;;;6.50;;
11709;SDS011;5911;51.036;6.972;2022-10-31T10:53:17;12.20;;;7.15;;
11709;SDS011;5911;51.036;6.972;2022-10-31T10:56:04;9.73;;;6.22;;
11709;SDS011;5911;51.036;6.972;2022-10-31T10:58:39;11.95;;;6.85;;
11709;SDS011;5911;51.036;6.972;2022-10-31T11:01:10;10.95;;;6.40;;
11709;SDS011;5911;51.036;6.972;2022-10-31T11:03:40;10.40;;;6.25;;
11709;SDS011;5911;51.036;6.972;2022-10-31T11:06:16;15.27;;;6.05;;
11709;SDS011;5911;51.036;6.972;2022-10-31T11:08:49;11.55;;;6.43;;
11709;SDS011;5911;51.036;6.972;2022-10-31T11:11:24;8.52;;;5.82;;
11709;SDS011;5911;51.036;6.972;2022-10-31T11:13:58;11.68;;;5.30;;
11709;SDS011;5911;51.036;6.972;2022-10-31T11:16:30;9.40;;;5.68;;
11709;SDS011;5911;51.036;6.972;2022-10-31T11:19:07;10.75;;;6.10;;
11709;SDS011;5911;51.036;6.972;2022-10-31T11:21:41;13.90;;;6.13;;
11709;SDS011;5911;51.036;6.972;2022-10-31T11:24:21;11.05;;;5.95;;
11709;SDS011;5911;51.036;6.972;2022-10-31T11:26:51;7.80;;;5.63;;
11709;SDS011;5911;51.036;6.972;2022-10-31T11:29:29;10.52;;;5.63;;
11709;SDS011;5911;51.036;6.972;2022-10-31T11:31:57;11.27;;;5.45;;
11709;SDS011;5911;51.036;6.972;2022-10-31T11:34:29;8.57;;;5.20;;
11709;SDS011;5911;51.036;6.972;2022-10-31T11:37:01;12.85;;;6.30;;
11709;SDS011;5911;51.036;6.972;2022-10-31T11:39:39;11.32;;;5.45;;
11709;SDS011;5911;51.036;6.972;2022-10-31T11:42:09;9.70;;;5.68;;
11709;SDS011;5911;51.036;6.972;2022-10-31T11:44:40;12.00;;;5.22;;
11709;SDS011;5911;51.036;6.972;2022-10-31T11:47:11;9.02;;;5.22;;
11709;SDS011;5911;51.036;6.972;2022-10-31T11:49:42;10.55;;;5.30;;
11709;SDS011;5911;51.036;6.972;2022-10-31T11:52:16;10.57;;;5.40;;
11709;SDS011;5911;51.036;6.972;2022-10-31T11:54:50;9.07;;;5.38;;
11709;SDS011;5911;51.036;6.972;2022-10-31T11:57:27;9.65;;;5.35;;
11709;SDS011;5911;51.036;6.972;2022-10-31T11:59:57;10.98;;;5.03;;
11709;SDS011;5911;51.036;6.972;2022-10-31T12:02:27;8.45;;;4.95;;
11709;SDS011;5911;51.036;6.972;2022-10-31T12:04:57;7.95;;;4.82;;
11709;SDS011;5911;51.036;6.972;2022-10-31T12:07:30;12.52;;;5.22;;
11709;SDS011;5911;51.036;6.972;2022-10-31T12:09:59;11.65;;;5.85;;
11709;SDS011;5911;51.036;6.972;2022-10-31T12:12:32;8.98;;;5.10;;
11709;SDS011;5911;51.036;6.972;2022-10-31T12:15:29;11.38;;;5.30;;
11709;SDS011;5911;51.036;6.972;2022-10-31T12:18:11;10.05;;;5.90;;
11709;SDS011;5911;51.036;6.972;2022-10-31T12:21:04;9.93;;;5.72;;
11709;SDS011;5911;51.036;6.972;2022-10-31T12:23:49;10.77;;;5.53;;
11709;SDS011;5911;51.036;6.972;2022-10-31T12:26:29;11.68;;;4.65;;
11709;SDS011;5911;51.036;6.972;2022-10-31T12:29:09;9.23;;;5.93;;
11709;SDS011;5911;51.036;6.972;2022-10-31T12:31:50;10.82;;;5.70;;
11709;SDS011;5911;51.036;6.972;2022-10-31T12:34:40;10.57;;;5.30;;
11709;SDS011;5911;51.036;6.972;2022-10-31T12:37:38;8.48;;;5.07;;
11709;SDS011;5911;51.036;6.972;2022-10-31T12:40:21;11.38;;;5.40;;
11709;SDS011;5911;51.036;6.972;2022-10-31T12:43:02;12.02;;;5.20;;
11709;SDS011;5911;51.036;6.972;2022-10-31T12:45:44;10.13;;;5.00;;
11709;SDS011;5911;51.036;6.972;2022-10-31T12:51:19;15.25;;;4.65;;
11709;SDS011;5911;51.036;6.972;2022-10-31T12:53:57;10.15;;;4.57;;
11709;SDS011;5911;51.036;6.972;2022-10-31T12:56:41;9.05;;;4.40;;
11709;SDS011;5911;51.036;6.972;2022-10-31T12:59:20;15.18;;;4.90;;
11709;SDS011;5911;51.036;6.972;2022-10-31T13:01:55;11.38;;;5.60;;
11709;SDS011;5911;51.036;6.972;2022-10-31T13:04:35;9.05;;;4.95;;
11709;SDS011;5911;51.036;6.972;2022-10-31T13:07:10;8.23;;;4.55;;
11709;SDS011;5911;51.036;6.972;2022-10-31T13:09:42;7.18;;;4.22;;
11709;SDS011;5911;51.036;6.972;2022-10-31T13:12:15;12.50;;;5.63;;
11709;SDS011;5911;51.036;6.972;2022-10-31T13:14:48;13.10;;;5.32;;
11709;SDS011;5911;51.036;6.972;2022-10-31T13:17:25;8.60;;;5.28;;
11709;SDS011;5911;51.036;6.972;2022-10-31T13:20:03;8.10;;;5.20;;
11709;SDS011;5911;51.036;6.972;2022-10-31T13:22:44;8.95;;;4.82;;
11709;SDS011;5911;51.036;6.972;2022-10-31T13:25:16;7.45;;;4.40;;
11709;SDS011;5911;51.036;6.972;2022-10-31T13:27:48;10.75;;;5.05;;
11709;SDS011;5911;51.036;6.972;2022-10-31T13:30:23;10.90;;;4.57;;
11709;SDS011;5911;51.036;6.972;2022-10-31T13:32:56;8.85;;;4.40;;
11709;SDS011;5911;51.036;6.972;2022-10-31T13:35:33;10.60;;;4.78;;
11709;SDS011;5911;51.036;6.972;2022-10-31T13:38:10;11.57;;;5.07;;
11709;SDS011;5911;51.036;6.972;2022-10-31T13:40:48;7.45;;;4.32;;
11709;SDS011;5911;51.036;6.972;2022-10-31T13:43:30;5.00;;;3.88;;
11709;SDS011;5911;51.036;6.972;2022-10-31T13:46:21;6.05;;;4.50;;
11709;SDS011;5911;51.036;6.972;2022-10-31T13:48:51;9.50;;;4.25;;
11709;SDS011;5911;51.036;6.972;2022-10-31T13:51:24;13.23;;;4.85;;
11709;SDS011;5911;51.036;6.972;2022-10-31T13:53:58;10.73;;;5.05;;
11709;SDS011;5911;51.036;6.972;2022-10-31T13:56:28;7.95;;;4.53;;
11709;SDS011;5911;51.036;6.972;2022-10-31T13:59:00;11.00;;;4.72;;
11709;SDS011;5911;51.036;6.972;2022-10-31T14:01:47;10.02;;;4.75;;
11709;SDS011;5911;51.036;6.972;2022-10-31T14:04:18;12.70;;;4.93;;
11709;SDS011;5911;51.036;6.972;2022-10-31T14:06:53;10.35;;;4.40;;
11709;SDS011;5911;51.036;6.972;2022-10-31T14:09:26;6.75;;;4.15;;
11709;SDS011;5911;51.036;6.972;2022-10-31T14:11:57;10.70;;;4.20;;
11709;SDS011;5911;51.036;6.972;2022-10-31T14:14:40;7.57;;;4.15;;
11709;SDS011;5911;51.036;6.972;2022-10-31T14:17:23;6.97;;;4.20;;
11709;SDS011;5911;51.036;6.972;2022-10-31T14:20:03;8.40;;;4.38;;
11709;SDS011;5911;51.036;6.972;2022-10-31T14:22:51;10.05;;;4.47;;
11709;SDS011;5911;51.036;6.972;2022-10-31T14:25:25;10.88;;;4.75;;
11709;SDS011;5911;51.036;6.972;2022-10-31T14:27:56;10.00;;;4.68;;
11709;SDS011;5911;51.036;6.972;2022-10-31T14:30:58;7.15;;;4.45;;
11709;SDS011;5911;51.036;6.972;2022-10-31T14:33:31;9.57;;;4.35;;
11709;SDS011;5911;51.036;6.972;2022-10-31T14:36:02;8.30;;;4.15;;
11709;SDS011;5911;51.036;6.972;2022-10-31T14:38:42;10.27;;;5.75;;
11709;SDS011;5911;51.036;6.972;2022-10-31T14:41:39;9.98;;;4.40;;
11709;SDS011;5911;51.036;6.972;2022-10-31T14:45:02;6.13;;;3.55;;
11709;SDS011;5911;51.036;6.972;2022-10-31T14:47:43;9.57;;;4.90;;
11709;SDS011;5911;51.036;6.972;2022-10-31T14:50:23;10.70;;;4.80;;
11709;SDS011;5911;51.036;6.972;2022-10-31T14:53:01;8.48;;;4.72;;
11709;SDS011;5911;51.036;6.972;2022-10-31T14:55:35;6.45;;;3.97;;
11709;SDS011;5911;51.036;6.972;2022-10-31T14:58:13;10.43;;;4.78;;
11709;SDS011;5911;51.036;6.972;2022-10-31T15:00:50;8.20;;;4.32;;
11709;SDS011;5911;51.036;6.972;2022-10-31T15:03:23;7.05;;;3.92;;
11709;SDS011;5911;51.036;6.972;2022-10-31T15:06:00;9.48;;;4.28;;
11709;SDS011;5911;51.036;6.972;2022-10-31T15:08:34;9.48;;;4.30;;
11709;SDS011;5911;51.036;6.972;2022-10-31T15:11:12;7.93;;;4.15;;
11709;SDS011;5911;51.036;6.972;2022-10-31T15:13:43;7.20;;;5.00;;
11709;SDS011;5911;51.036;6.972;2022-10-31T15:16:14;9.75;;;4.28;;
11709;SDS011;5911;51.036;6.972;2022-10-31T15:18:47;7.50;;;4.25;;
11709;SDS011;5911;51.036;6.972;2022-10-31T15:21:19;6.15;;;4.10;;
11709;SDS011;5911;51.036;6.972;2022-10-31T15:23:51;10.07;;;4.20;;
11709;SDS011;5911;51.036;6.972;2022-10-31T15:26:22;10.25;;;4.30;;
11709;SDS011;5911;51.036;6.972;2022-10-31T15:28:59;7.95;;;4.38;;
11709;SDS011;5911;51.036;6.972;2022-10-31T15:31:29;7.32;;;4.35;;
11709;SDS011;5911;51.036;6.972;2022-10-31T15:34:00;7.68;;;4.35;;
11709;SDS011;5911;51.036;6.972;2022-10-31T15:36:36;10.02;;;4.05;;
11709;SDS011;5911;51.036;6.972;2022-10-31T15:39:08;9.40;;;4.60;;
11709;SDS011;5911;51.036;6.972;2022-10-31T15:41:42;10.70;;;4.47;;
11709;SDS011;5911;51.036;6.972;2022-10-31T15:44:21;7.10;;;3.70;;
11709;SDS011;5911;51.036;6.972;2022-10-31T15:46:53;7.63;;;3.80;;
11709;SDS011;5911;51.036;6.972;2022-10-31T15:49:29;8.70;;;3.60;;